Weather at Porjus flygfält

Public forecast

Using degrees Celsius for public forecast. Weather courtesy of forecast.io.

Closest aviation weather report (METAR) to Porjus flygfält

Report is more than 6 hours old.

Closest report is Gällivare Airport, 25.1 nm (46.5 km) ENE.

2022/11/14 15:20 (retrieved 2 years ago)

ESNG 141520Z 29004KT CAVOK M09/// Q1019

Closest aviation forecast (TAF) to Porjus flygfält

Forecast is more than 12 hours old.

Closest forecast is Harstad/Narvik Airport, Evenes, 116.5 nm (215.7 km) NW.

2023/02/22 20:12 Ammendment (retrieved 1 year ago)

TAF AMD ENEV 222008Z 2220/2318 22009KT 9999 BKN025 TEMPO 2220/2223 1000 SN VV008 TEMPO 2223/2315 22018G28KT TEMPO 2223/2318 1200 SHSN VV008 TEMPO 2302/2318 SCT030CB